Decoded Metar for LQMO (MOSTAR in BOSNIA-HERCEGOVINA) (IATA:OMO) | Meteo·Mobile Aviation Weather
aviador You're here:

LQMO Decoded Metar

MOSTAR in BOSNIA-HERCEGOVINA
Report Time2018-12-10 11:00:00
UTC Time2018-12-10 11:15:13
Flight Rules vfr VFR
Wind340° at 03 kt
W.Decomp.*RWY 34: 3.0 kt HW 0.1 kt LCW
W.Rank340° ranks 8
Current wind is below 340° avg. (8.4)
Visibility9999 m
Phenomena:N/A
Clouds:Few 045 Hf
Expected CloudBase > 2,800 ft AGL from Temp-Dew spread
CeilingNone
Temp11°C (ISA -3)
Dew Point04°C (62% RH)
AAT8.6°C
QNH1010 hPa
Density Alt174 ft
Elevation354 ft
Report Wrong Elevation
Raw Report
LQMO 101100Z 34003KT 240V040 9999 FEW045 11/04 Q1010=

Extra information for LQMO:More info

Metar Taf Metar & Taf Last 4 Metars F.Rules Stats Wind Profile Meteogram Temp Stats Airport Information Weather charts Add Link Nearby VenuesMetar ALERT Operation Metar Decoded Social comments